createdAt,value
2018-04-30T00:00:02.518Z,7.20
2018-04-30T00:02:31.166Z,5.67
2018-04-30T00:05:00.932Z,3.50
2018-04-30T00:07:30.216Z,6.80
2018-04-30T00:10:01.717Z,6.03
2018-04-30T00:12:33.510Z,6.97
2018-04-30T00:15:02.185Z,4.57
2018-04-30T00:17:31.719Z,3.30
2018-04-30T00:20:01.132Z,5.23
2018-04-30T00:22:32.000Z,5.73
2018-04-30T00:25:01.815Z,4.53
2018-04-30T00:27:30.827Z,4.90
2018-04-30T00:30:01.302Z,3.33
2018-04-30T00:32:31.046Z,6.13
2018-04-30T00:35:01.525Z,5.93
2018-04-30T00:37:34.059Z,6.97
2018-04-30T00:40:05.275Z,4.00
2018-04-30T00:42:33.912Z,4.57
2018-04-30T00:45:03.933Z,4.23
2018-04-30T00:47:34.016Z,3.93
2018-04-30T00:50:01.837Z,3.70
2018-04-30T00:52:30.219Z,5.47
2018-04-30T00:54:59.794Z,5.17
2018-04-30T00:57:28.148Z,3.07
2018-04-30T00:59:59.081Z,7.20
2018-04-30T01:02:30.232Z,4.57
2018-04-30T01:04:57.868Z,6.30
2018-04-30T01:07:29.843Z,3.93
2018-04-30T01:10:00.192Z,5.00
2018-04-30T01:12:33.086Z,4.53
2018-04-30T01:15:01.892Z,4.97
2018-04-30T01:17:34.689Z,4.37
2018-04-30T01:20:04.823Z,5.33
2018-04-30T01:22:37.971Z,4.57
2018-04-30T01:25:09.072Z,3.53
2018-04-30T01:27:39.907Z,7.10
2018-04-30T01:30:11.171Z,6.20
2018-04-30T01:32:43.269Z,3.47
2018-04-30T01:35:16.008Z,3.27
2018-04-30T01:37:43.886Z,3.40
2018-04-30T01:40:16.513Z,5.93
2018-04-30T01:42:45.165Z,3.77
2018-04-30T01:45:14.540Z,4.83
2018-04-30T01:47:43.433Z,3.70
2018-04-30T01:50:14.741Z,5.97
2018-04-30T01:52:45.916Z,5.20
2018-04-30T01:55:15.231Z,7.10
2018-04-30T01:57:45.062Z,5.50
2018-04-30T02:00:14.579Z,3.67
2018-04-30T02:02:46.058Z,3.60
2018-04-30T02:05:14.993Z,7.13
2018-04-30T02:07:43.733Z,3.73
2018-04-30T02:10:13.507Z,4.07
2018-04-30T02:12:43.130Z,3.30
2018-04-30T02:15:14.538Z,3.83
2018-04-30T02:17:45.485Z,5.73
2018-04-30T02:20:19.948Z,5.43
2018-04-30T02:22:50.044Z,6.00
2018-04-30T02:25:19.837Z,4.77
2018-04-30T02:27:49.402Z,4.30
2018-04-30T02:30:21.728Z,5.47
2018-04-30T02:32:49.075Z,4.57
2018-04-30T02:35:19.269Z,5.97
2018-04-30T02:37:48.637Z,4.97
2018-04-30T02:40:22.811Z,4.20
2018-04-30T02:42:57.161Z,6.33
2018-04-30T02:45:27.432Z,4.93
2018-04-30T02:47:56.331Z,4.37
2018-04-30T02:50:28.879Z,6.97
2018-04-30T02:52:59.285Z,5.97
2018-04-30T02:55:30.759Z,6.30
2018-04-30T02:58:00.077Z,4.10
2018-04-30T03:00:29.896Z,4.27
2018-04-30T03:03:06.039Z,5.70
2018-04-30T03:05:32.892Z,8.30
2018-04-30T03:08:01.305Z,8.60
2018-04-30T03:10:32.042Z,5.70
2018-04-30T03:12:59.993Z,4.90
2018-04-30T03:15:32.082Z,6.17
2018-04-30T03:18:00.930Z,6.60
2018-04-30T03:20:32.504Z,8.47
2018-04-30T03:23:00.819Z,9.27
2018-04-30T03:25:29.455Z,10.90
2018-04-30T03:28:01.648Z,8.77
2018-04-30T03:30:30.554Z,7.93
2018-04-30T03:33:01.812Z,8.17
2018-04-30T03:35:30.148Z,8.30
2018-04-30T03:38:00.185Z,10.80
2018-04-30T03:40:29.204Z,10.10
2018-04-30T03:42:59.772Z,8.07
2018-04-30T03:45:32.014Z,6.87
2018-04-30T03:48:00.480Z,10.00
2018-04-30T03:50:32.317Z,6.40
2018-04-30T03:53:02.179Z,6.10
2018-04-30T03:55:30.269Z,10.37
2018-04-30T03:58:00.061Z,8.43
2018-04-30T04:00:41.400Z,10.40
2018-04-30T04:03:24.681Z,9.87
2018-04-30T04:06:04.909Z,13.10
2018-04-30T04:08:33.508Z,8.57
2018-04-30T04:11:04.930Z,12.37
2018-04-30T04:13:37.489Z,17.60
2018-04-30T04:16:08.954Z,24.80
2018-04-30T04:18:46.662Z,13.73
2018-04-30T04:21:18.020Z,12.90
2018-04-30T04:23:57.031Z,14.53
2018-04-30T04:26:26.588Z,24.30
2018-04-30T04:28:57.151Z,13.37
2018-04-30T04:31:43.391Z,13.47
2018-04-30T04:34:17.489Z,31.67
2018-04-30T04:36:45.844Z,33.93
2018-04-30T04:39:14.389Z,29.63
2018-04-30T04:41:44.607Z,25.50
2018-04-30T04:44:17.286Z,17.83
2018-04-30T04:46:48.145Z,16.93
2018-04-30T04:49:16.527Z,12.23
2018-04-30T04:51:48.509Z,13.87
2018-04-30T04:54:17.704Z,14.80
2018-04-30T04:56:48.965Z,13.07
2018-04-30T04:59:15.459Z,15.73
2018-04-30T05:01:41.998Z,15.83
2018-04-30T05:04:08.736Z,11.03
2018-04-30T05:06:35.152Z,18.53
2018-04-30T05:09:01.756Z,16.33
2018-04-30T05:11:28.330Z,11.23
2018-04-30T05:13:54.830Z,23.50
2018-04-30T05:16:21.420Z,16.67
2018-04-30T05:18:47.977Z,14.27
2018-04-30T05:21:14.509Z,14.43
2018-04-30T05:23:41.148Z,10.33
2018-04-30T05:26:07.661Z,10.33
2018-04-30T05:28:34.059Z,13.20
2018-04-30T05:31:00.559Z,10.47
2018-04-30T05:33:26.982Z,12.30
2018-04-30T05:35:53.617Z,12.77
2018-04-30T05:38:20.082Z,13.53
2018-04-30T05:40:46.486Z,10.80
2018-04-30T05:43:12.960Z,12.27
2018-04-30T05:45:39.400Z,11.90
2018-04-30T05:48:05.975Z,12.40
2018-04-30T05:50:32.385Z,14.40
2018-04-30T05:52:58.952Z,11.27
2018-04-30T05:55:25.441Z,12.63
2018-04-30T05:57:52.024Z,11.47
2018-04-30T06:00:18.620Z,13.23
2018-04-30T06:02:45.210Z,10.67
2018-04-30T06:05:11.663Z,9.07
2018-04-30T06:10:11.249Z,9.70
2018-04-30T06:12:37.801Z,12.40
2018-04-30T06:15:04.215Z,10.00
2018-04-30T06:17:30.822Z,14.47
2018-04-30T06:19:57.520Z,15.00
2018-04-30T06:22:24.066Z,12.00
2018-04-30T06:24:50.506Z,13.93
2018-04-30T06:27:16.977Z,15.57
2018-04-30T06:29:43.458Z,10.27
2018-04-30T06:32:09.970Z,16.53
2018-04-30T06:34:36.512Z,15.77
2018-04-30T06:37:03.117Z,14.67
2018-04-30T06:39:29.488Z,17.17
2018-04-30T06:41:55.921Z,16.43
2018-04-30T06:44:22.373Z,9.50
2018-04-30T06:46:48.907Z,11.27
2018-04-30T06:49:15.411Z,8.53
2018-04-30T06:51:41.855Z,11.80
2018-04-30T06:54:08.361Z,12.83
2018-04-30T06:56:34.767Z,12.40
2018-04-30T06:59:01.185Z,9.70
2018-04-30T07:01:27.783Z,9.83
2018-04-30T07:03:54.259Z,16.30
2018-04-30T07:06:20.769Z,12.07
2018-04-30T07:08:47.344Z,13.00
2018-04-30T07:11:13.699Z,10.07
2018-04-30T07:13:40.392Z,9.93
2018-04-30T07:16:06.750Z,12.90
2018-04-30T07:18:33.260Z,9.73
2018-04-30T07:20:59.646Z,8.77
2018-04-30T07:23:26.038Z,14.30
2018-04-30T07:25:52.712Z,15.73
2018-04-30T07:28:19.102Z,9.23
2018-04-30T07:30:45.478Z,15.13
2018-04-30T07:33:12.019Z,12.80
2018-04-30T07:35:38.417Z,14.43
2018-04-30T07:38:05.077Z,13.20
2018-04-30T07:40:31.501Z,16.63
2018-04-30T07:42:58.057Z,19.00
2018-04-30T07:45:24.497Z,12.70
2018-04-30T07:47:50.954Z,8.77
2018-04-30T07:50:17.505Z,7.77
2018-04-30T07:52:43.945Z,10.53
2018-04-30T07:55:10.330Z,8.20
2018-04-30T07:57:36.685Z,8.70
2018-04-30T08:00:03.292Z,14.60
2018-04-30T08:02:29.792Z,8.43
2018-04-30T08:04:56.267Z,11.17
2018-04-30T08:07:22.761Z,8.07
2018-04-30T08:09:49.344Z,11.43
2018-04-30T08:12:15.760Z,21.60
2018-04-30T08:14:42.150Z,14.07
2018-04-30T08:17:08.588Z,11.33
2018-04-30T08:19:35.009Z,9.27
2018-04-30T08:22:01.510Z,10.97
2018-04-30T08:24:27.920Z,10.70
2018-04-30T08:26:54.515Z,15.07
2018-04-30T08:29:21.122Z,9.30
2018-04-30T08:31:47.543Z,14.53
2018-04-30T08:34:14.045Z,11.23
2018-04-30T08:36:40.516Z,14.43
2018-04-30T08:39:07.248Z,13.67
2018-04-30T08:41:33.617Z,9.47
2018-04-30T08:44:00.173Z,12.20
2018-04-30T08:46:26.604Z,14.70
2018-04-30T08:48:53.113Z,13.37
2018-04-30T08:51:19.621Z,13.30
2018-04-30T08:53:46.105Z,11.00
2018-04-30T08:56:12.660Z,16.00
2018-04-30T08:58:39.163Z,12.67
2018-04-30T09:01:05.604Z,10.70
2018-04-30T09:03:32.292Z,15.60
2018-04-30T09:05:58.841Z,14.30
2018-04-30T09:08:25.216Z,10.87
2018-04-30T09:10:51.794Z,13.43
2018-04-30T09:13:18.292Z,13.83
2018-04-30T09:15:44.835Z,9.53
2018-04-30T09:18:11.233Z,13.23
2018-04-30T09:20:37.765Z,14.73
2018-04-30T09:23:04.300Z,10.33
2018-04-30T09:25:30.863Z,15.83
2018-04-30T09:27:57.439Z,12.03
2018-04-30T09:30:24.008Z,9.77
2018-04-30T09:32:50.462Z,15.93
2018-04-30T09:35:16.950Z,12.07
2018-04-30T09:37:43.635Z,11.43
2018-04-30T09:40:10.180Z,10.83
2018-04-30T09:42:36.825Z,16.57
2018-04-30T09:45:03.295Z,11.97
2018-04-30T09:47:29.652Z,17.97
2018-04-30T09:49:56.158Z,9.23
2018-04-30T09:52:22.645Z,10.83
2018-04-30T09:54:49.244Z,8.57
2018-04-30T09:57:15.719Z,29.43
2018-04-30T09:59:42.044Z,19.40
2018-04-30T10:02:08.521Z,12.83
2018-04-30T10:04:35.096Z,8.93
2018-04-30T10:07:01.576Z,8.83
2018-04-30T10:09:28.158Z,28.63
2018-04-30T10:11:54.668Z,25.43
2018-04-30T10:14:21.000Z,13.20
2018-04-30T10:16:47.521Z,9.43
2018-04-30T10:25:48.470Z,12.70
2018-04-30T10:28:14.826Z,11.80
2018-04-30T10:30:41.368Z,14.97
2018-04-30T10:33:07.869Z,17.47
2018-04-30T10:35:34.457Z,12.30
2018-04-30T10:38:00.928Z,11.20
2018-04-30T10:40:27.267Z,12.70
2018-04-30T10:42:53.788Z,13.33
2018-04-30T10:45:20.172Z,11.57
2018-04-30T10:47:46.655Z,10.57
2018-04-30T10:50:13.113Z,12.87
2018-04-30T10:52:39.659Z,13.07
2018-04-30T10:55:06.240Z,14.80
2018-04-30T10:57:32.735Z,15.53
2018-04-30T10:59:59.130Z,12.67
2018-04-30T11:02:25.536Z,17.17
2018-04-30T11:07:32.938Z,16.97
2018-04-30T11:09:59.366Z,10.83
2018-04-30T11:12:25.771Z,13.43
2018-04-30T11:14:52.216Z,16.37
2018-04-30T11:17:18.671Z,14.00
2018-04-30T11:19:45.221Z,12.00
2018-04-30T11:22:11.599Z,19.40
2018-04-30T11:24:37.936Z,9.73
2018-04-30T11:27:04.342Z,17.77
2018-04-30T11:29:30.711Z,11.27
2018-04-30T11:31:57.415Z,12.30
2018-04-30T11:34:23.828Z,11.10
2018-04-30T11:36:50.190Z,9.53
2018-04-30T11:39:16.661Z,16.13
2018-04-30T11:41:43.126Z,11.00
2018-04-30T11:44:09.651Z,12.80
2018-04-30T11:46:36.234Z,13.50
2018-04-30T11:49:02.720Z,18.53
2018-04-30T11:51:29.172Z,21.60
2018-04-30T11:53:55.780Z,16.47
2018-04-30T11:56:22.205Z,20.30
2018-04-30T11:58:48.723Z,29.37
2018-04-30T12:01:15.098Z,22.00
2018-04-30T12:03:41.499Z,24.87
2018-04-30T12:06:07.919Z,43.83
2018-04-30T12:08:34.288Z,19.17
2018-04-30T12:11:00.759Z,20.53
2018-04-30T12:13:27.091Z,21.07
2018-04-30T12:15:53.602Z,18.43
2018-04-30T12:18:20.286Z,20.90
2018-04-30T12:20:46.926Z,27.20
2018-04-30T12:23:13.263Z,19.37
2018-04-30T12:25:39.760Z,11.63
2018-04-30T12:28:06.158Z,20.67
2018-04-30T12:30:32.792Z,20.90
2018-04-30T12:32:59.292Z,22.23
2018-04-30T12:35:25.752Z,20.50
2018-04-30T12:37:52.381Z,14.87
2018-04-30T12:40:18.790Z,20.17
2018-04-30T12:42:45.248Z,16.47
2018-04-30T12:45:11.696Z,12.33
2018-04-30T12:47:38.077Z,16.63
2018-04-30T12:50:04.492Z,16.63
2018-04-30T12:52:30.943Z,12.17
2018-04-30T12:54:57.466Z,14.00
2018-04-30T12:57:24.012Z,15.10
2018-04-30T12:59:50.536Z,14.60
2018-04-30T13:02:17.061Z,19.03
2018-04-30T13:04:43.496Z,20.10
2018-04-30T13:07:09.969Z,17.53
2018-04-30T13:09:36.491Z,11.07
2018-04-30T13:12:03.004Z,17.33
2018-04-30T13:14:29.541Z,18.80
2018-04-30T13:16:56.008Z,18.23
2018-04-30T13:19:22.487Z,16.07
2018-04-30T13:21:48.992Z,16.97
2018-04-30T13:24:15.342Z,15.53
2018-04-30T13:26:41.936Z,13.57
2018-04-30T13:29:08.257Z,11.97
2018-04-30T13:31:34.795Z,18.67
2018-04-30T13:34:01.513Z,19.40
2018-04-30T13:36:28.083Z,20.77
2018-04-30T13:38:54.648Z,16.93
2018-04-30T13:41:21.087Z,16.87
2018-04-30T13:43:47.583Z,13.17
2018-04-30T13:46:14.129Z,15.40
2018-04-30T13:48:40.656Z,14.90
2018-04-30T13:51:07.076Z,16.77
2018-04-30T13:53:33.424Z,16.30
2018-04-30T13:55:59.920Z,19.33
2018-04-30T13:58:26.468Z,14.30
2018-04-30T14:00:52.861Z,17.10
2018-04-30T14:03:19.193Z,14.87
2018-04-30T14:05:45.635Z,14.27
2018-04-30T14:08:12.044Z,14.67
2018-04-30T14:10:38.603Z,13.83
2018-04-30T14:13:05.103Z,20.57
2018-04-30T14:15:31.407Z,14.10
2018-04-30T14:17:57.776Z,20.93
2018-04-30T14:20:24.351Z,14.80
2018-04-30T14:22:50.668Z,16.50
2018-04-30T14:25:17.270Z,14.87
2018-04-30T14:27:43.749Z,17.73
2018-04-30T14:30:10.220Z,17.90
2018-04-30T14:32:36.633Z,20.27
2018-04-30T14:35:03.193Z,18.00
2018-04-30T14:37:29.612Z,14.27
2018-04-30T14:39:56.112Z,22.07
2018-04-30T14:42:22.578Z,17.00
2018-04-30T14:44:48.964Z,16.10
2018-04-30T14:47:15.617Z,16.63
2018-04-30T14:49:42.017Z,18.30
2018-04-30T14:52:08.472Z,17.70
2018-04-30T14:54:34.845Z,24.80
2018-04-30T14:57:01.237Z,16.20
2018-04-30T14:59:27.720Z,21.30
2018-04-30T15:01:54.160Z,16.20
2018-04-30T15:04:20.632Z,12.13
2018-04-30T15:06:47.116Z,20.63
2018-04-30T15:09:13.575Z,18.63
2018-04-30T15:11:40.037Z,18.30
2018-04-30T15:14:06.403Z,15.60
2018-04-30T15:16:32.848Z,15.23
2018-04-30T15:18:59.224Z,17.03
2018-04-30T15:24:17.785Z,17.50
2018-04-30T15:26:44.272Z,14.20
2018-04-30T15:29:10.824Z,16.70
2018-04-30T15:31:37.383Z,25.80
2018-04-30T15:34:03.863Z,21.70
2018-04-30T15:36:30.276Z,23.60
2018-04-30T15:38:56.742Z,27.10
2018-04-30T15:41:23.257Z,16.53
2018-04-30T15:46:21.791Z,21.50
2018-04-30T15:48:48.304Z,16.70
2018-04-30T15:51:14.666Z,20.87
2018-04-30T15:53:41.215Z,16.53
2018-04-30T15:56:07.672Z,16.60
2018-04-30T15:58:33.999Z,19.97
2018-04-30T16:01:00.347Z,20.33
2018-04-30T16:03:26.885Z,19.93
2018-04-30T16:05:53.284Z,28.27
2018-04-30T16:08:19.736Z,27.43
2018-04-30T16:10:46.136Z,17.97
2018-04-30T16:13:12.622Z,17.60
2018-04-30T16:15:39.329Z,21.13
2018-04-30T16:18:05.794Z,22.00
2018-04-30T16:20:32.215Z,16.93
2018-04-30T16:22:58.633Z,16.00
2018-04-30T16:25:25.001Z,16.70
2018-04-30T16:27:51.473Z,20.03
2018-04-30T16:30:17.928Z,14.47
2018-04-30T16:32:44.417Z,20.77
2018-04-30T16:35:10.899Z,21.47
2018-04-30T16:37:37.446Z,14.90
2018-04-30T16:40:03.961Z,17.73
2018-04-30T16:42:30.500Z,15.47
2018-04-30T16:44:57.048Z,17.77
2018-04-30T16:47:23.468Z,18.90
2018-04-30T16:49:49.906Z,24.97
2018-04-30T16:52:16.436Z,26.43
2018-04-30T16:54:42.852Z,24.90
2018-04-30T16:57:09.353Z,22.17
2018-04-30T16:59:35.879Z,18.83
2018-04-30T17:02:02.369Z,20.17
2018-04-30T17:04:28.909Z,16.03
2018-04-30T17:06:55.372Z,20.13
2018-04-30T17:09:21.707Z,18.40
2018-04-30T17:11:48.037Z,20.40
2018-04-30T17:14:14.374Z,23.83
2018-04-30T17:16:40.840Z,16.80
2018-04-30T17:19:07.381Z,19.97
2018-04-30T17:21:33.866Z,19.80
2018-04-30T17:24:00.236Z,21.27
2018-04-30T17:26:26.544Z,14.97
2018-04-30T17:28:52.940Z,22.77
2018-04-30T17:31:19.324Z,15.60
2018-04-30T17:33:45.654Z,21.67
2018-04-30T17:36:12.087Z,13.03
2018-04-30T17:38:38.448Z,14.03
2018-04-30T17:41:04.943Z,16.17
2018-04-30T17:43:31.405Z,13.07
2018-04-30T17:45:57.986Z,13.30
2018-04-30T17:48:24.393Z,12.37
2018-04-30T17:50:50.847Z,13.00
2018-04-30T17:53:17.321Z,14.90
2018-04-30T17:55:43.764Z,12.53
2018-04-30T17:58:10.132Z,12.23
2018-04-30T18:00:36.499Z,5.83
2018-04-30T18:03:02.828Z,10.27
2018-04-30T18:11:38.296Z,8.13
2018-04-30T18:14:05.025Z,8.63
2018-04-30T18:16:31.449Z,6.33
2018-04-30T18:18:57.833Z,7.50
2018-04-30T18:21:24.341Z,6.57
2018-04-30T18:23:51.246Z,6.60
2018-04-30T18:26:18.289Z,6.43
2018-04-30T18:28:44.904Z,8.70
2018-04-30T18:31:11.471Z,8.13
2018-04-30T18:36:51.770Z,7.87
2018-04-30T18:39:18.340Z,7.13
2018-04-30T18:41:44.779Z,7.43
2018-04-30T18:44:12.423Z,6.63
2018-04-30T18:46:39.083Z,11.93
2018-04-30T18:49:05.945Z,7.80
2018-04-30T18:51:32.749Z,7.67
2018-04-30T18:53:59.314Z,7.63
2018-04-30T18:56:26.016Z,7.27
2018-04-30T18:58:52.448Z,7.63
2018-04-30T19:01:18.917Z,9.50
2018-04-30T19:03:45.366Z,10.33
2018-04-30T19:06:11.755Z,11.70
2018-04-30T19:08:38.039Z,11.97
2018-04-30T19:11:04.548Z,10.50
2018-04-30T19:13:31.005Z,12.83
2018-04-30T19:15:57.539Z,11.83
2018-04-30T19:18:23.883Z,10.27
2018-04-30T19:20:50.246Z,13.43
2018-04-30T19:23:16.648Z,9.97
2018-04-30T19:25:43.063Z,9.80
2018-04-30T19:28:09.433Z,13.33
2018-04-30T19:30:35.975Z,11.27
2018-04-30T19:33:02.363Z,13.23
2018-04-30T19:35:28.773Z,9.70
2018-04-30T19:37:55.126Z,10.50
2018-04-30T19:40:21.572Z,8.67
2018-04-30T19:42:48.058Z,7.60
2018-04-30T19:45:14.701Z,7.30
2018-04-30T19:47:41.082Z,7.23
2018-04-30T19:50:07.467Z,9.37
2018-04-30T19:52:33.798Z,9.10
2018-04-30T19:55:00.141Z,11.83
2018-04-30T19:57:26.580Z,13.50
2018-04-30T19:59:52.931Z,14.30
2018-04-30T20:02:19.426Z,12.77
2018-04-30T20:04:45.784Z,10.97
2018-04-30T20:07:12.240Z,9.60
2018-04-30T20:09:38.643Z,8.20
2018-04-30T20:12:05.153Z,9.30
2018-04-30T20:14:31.689Z,11.87
2018-04-30T20:16:58.129Z,13.50
2018-04-30T20:19:24.695Z,14.10
2018-04-30T20:21:51.116Z,10.50
2018-04-30T20:24:17.488Z,17.30
2018-04-30T20:26:43.823Z,17.27
2018-04-30T20:29:10.253Z,24.73
2018-04-30T20:31:36.637Z,15.63
2018-04-30T20:34:03.145Z,18.30
2018-04-30T20:36:29.606Z,14.27
2018-04-30T20:38:56.008Z,16.70
2018-04-30T20:41:22.484Z,14.37
2018-04-30T20:43:48.847Z,22.37
2018-04-30T20:46:15.319Z,16.40
2018-04-30T20:48:41.647Z,18.17
2018-04-30T20:51:08.008Z,14.10
2018-04-30T20:53:34.343Z,10.87
2018-04-30T20:56:00.884Z,12.93
2018-04-30T20:58:27.324Z,12.10
2018-04-30T21:00:53.766Z,13.93
2018-04-30T21:03:20.069Z,10.53
2018-04-30T21:05:46.429Z,16.97
2018-04-30T21:08:12.789Z,15.53
2018-04-30T21:10:39.291Z,11.47
2018-04-30T21:13:05.644Z,14.00
2018-04-30T21:15:32.112Z,11.03
2018-04-30T21:17:58.515Z,17.63
2018-04-30T21:20:24.860Z,13.80
2018-04-30T21:22:51.351Z,13.90
2018-04-30T21:25:17.811Z,15.67
2018-04-30T21:27:44.227Z,13.50
2018-04-30T21:30:10.917Z,16.20
2018-04-30T21:32:37.264Z,14.53
2018-04-30T21:35:03.756Z,14.00
2018-04-30T21:37:30.108Z,13.33
2018-04-30T21:39:56.611Z,13.90
2018-04-30T21:42:23.140Z,16.30
2018-04-30T21:44:49.585Z,10.37
2018-04-30T21:47:15.967Z,11.83
2018-04-30T21:49:42.356Z,18.10
2018-04-30T21:52:08.829Z,14.63
2018-04-30T21:54:35.330Z,15.47
2018-04-30T21:57:01.757Z,12.30
2018-04-30T21:59:28.244Z,12.63
2018-04-30T22:01:54.638Z,13.23
2018-04-30T22:04:21.122Z,12.30
2018-04-30T22:06:47.590Z,12.90
2018-04-30T22:09:14.120Z,13.87
2018-04-30T22:11:40.516Z,15.27
2018-04-30T22:14:07.012Z,12.37
2018-04-30T22:16:33.568Z,16.20
2018-04-30T22:18:59.911Z,9.47
2018-04-30T22:21:26.460Z,14.43
2018-04-30T22:23:52.835Z,11.80
2018-04-30T22:26:19.291Z,12.80
2018-04-30T22:28:45.758Z,16.27
2018-04-30T22:31:12.340Z,13.93
2018-04-30T22:33:38.808Z,12.57
2018-04-30T22:36:05.328Z,12.87
2018-04-30T22:38:31.756Z,12.90
2018-04-30T22:40:58.461Z,11.87
2018-04-30T22:43:24.977Z,10.83
2018-04-30T22:45:51.500Z,10.37
2018-04-30T22:48:17.972Z,10.70
2018-04-30T22:50:44.584Z,13.03
2018-04-30T22:53:11.037Z,10.50
2018-04-30T22:55:37.552Z,11.03
2018-04-30T22:58:03.970Z,11.03
2018-04-30T23:00:30.378Z,19.90
2018-04-30T23:02:56.999Z,11.73
2018-04-30T23:05:23.540Z,10.67
2018-04-30T23:07:50.009Z,12.83
2018-04-30T23:10:16.671Z,9.93
2018-04-30T23:12:43.255Z,9.67
2018-04-30T23:15:09.722Z,9.97
2018-04-30T23:17:36.323Z,11.87
2018-04-30T23:20:02.900Z,13.20
2018-04-30T23:22:37.672Z,11.77
2018-04-30T23:25:04.189Z,14.37
2018-04-30T23:27:30.659Z,11.43
2018-04-30T23:29:57.191Z,13.17
2018-04-30T23:32:23.688Z,12.43
2018-04-30T23:34:50.232Z,11.67
2018-04-30T23:37:16.699Z,11.73
2018-04-30T23:39:43.136Z,11.40
2018-04-30T23:42:09.572Z,11.17
2018-04-30T23:44:36.004Z,10.50
2018-04-30T23:47:02.508Z,11.77
2018-04-30T23:49:28.912Z,10.13
2018-04-30T23:51:55.411Z,21.07
2018-04-30T23:54:21.902Z,11.63
2018-04-30T23:56:48.467Z,11.93
2018-04-30T23:59:14.990Z,9.50
